createdAt,value
2023-01-06T00:00:01.780Z,0
2023-01-06T00:01:01.767Z,0
2023-01-06T00:02:01.756Z,0
2023-01-06T00:03:01.743Z,0
2023-01-06T00:04:01.733Z,0
2023-01-06T00:05:01.722Z,0
2023-01-06T00:06:01.709Z,0
2023-01-06T00:07:01.712Z,0
2023-01-06T00:08:01.689Z,0
2023-01-06T00:09:01.675Z,0
2023-01-06T00:10:01.672Z,0
2023-01-06T00:11:01.652Z,0
2023-01-06T00:12:01.645Z,0
2023-01-06T00:13:01.649Z,0
2023-01-06T00:14:01.626Z,0
2023-01-06T00:15:01.614Z,0
2023-01-06T00:16:01.604Z,0
2023-01-06T00:17:01.596Z,0
2023-01-06T00:18:01.582Z,0
2023-01-06T00:19:01.576Z,0
2023-01-06T00:20:01.560Z,0
2023-01-06T00:21:01.549Z,0
2023-01-06T00:22:01.535Z,0
2023-01-06T00:23:01.531Z,0
2023-01-06T00:24:01.520Z,0
2023-01-06T00:25:01.516Z,0
2023-01-06T00:26:01.493Z,0
2023-01-06T00:27:01.483Z,0
2023-01-06T00:28:01.473Z,0
2023-01-06T00:29:01.463Z,0
2023-01-06T00:30:01.458Z,0
2023-01-06T00:31:01.451Z,0
2023-01-06T00:32:01.430Z,0
2023-01-06T00:33:01.423Z,0
2023-01-06T00:34:01.408Z,0
2023-01-06T00:35:01.396Z,0
2023-01-06T00:36:01.395Z,0
2023-01-06T00:37:01.388Z,0
2023-01-06T00:38:01.367Z,0
2023-01-06T00:39:01.357Z,0
2023-01-06T00:40:01.361Z,0
2023-01-06T00:41:01.334Z,0
2023-01-06T00:42:01.324Z,0
2023-01-06T00:43:01.341Z,0
2023-01-06T00:44:01.296Z,0
2023-01-06T00:45:01.290Z,0
2023-01-06T00:46:01.276Z,0
2023-01-06T00:47:01.263Z,0
2023-01-06T00:48:01.259Z,0
2023-01-06T00:49:01.259Z,0
2023-01-06T00:50:01.235Z,0
2023-01-06T00:51:01.228Z,0
2023-01-06T00:52:01.216Z,0
2023-01-06T00:53:01.201Z,0
2023-01-06T00:54:01.191Z,0
2023-01-06T00:55:01.199Z,0
2023-01-06T00:56:01.174Z,0
2023-01-06T00:57:01.159Z,0
2023-01-06T00:58:01.153Z,0
2023-01-06T00:59:01.142Z,0
2023-01-06T01:00:01.128Z,0
2023-01-06T01:01:01.123Z,0
2023-01-06T01:02:01.105Z,0
2023-01-06T01:03:01.420Z,0
2023-01-06T01:04:01.086Z,0
2023-01-06T01:05:01.091Z,0
2023-01-06T01:06:01.063Z,0
2023-01-06T01:07:01.049Z,0
2023-01-06T01:08:01.049Z,0
2023-01-06T01:09:01.058Z,0
2023-01-06T01:10:01.024Z,0
2023-01-06T01:11:01.009Z,0
2023-01-06T01:12:00.998Z,0
2023-01-06T01:13:00.994Z,0
2023-01-06T01:14:00.993Z,0
2023-01-06T01:15:00.971Z,0
2023-01-06T01:16:00.966Z,0
2023-01-06T01:17:00.943Z,0
2023-01-06T01:18:00.938Z,0
2023-01-06T01:19:00.928Z,0
2023-01-06T01:20:00.916Z,0
2023-01-06T01:21:00.905Z,0
2023-01-06T01:22:00.890Z,0
2023-01-06T01:23:00.882Z,0
2023-01-06T01:24:00.874Z,0
2023-01-06T01:25:00.865Z,0
2023-01-06T01:26:00.864Z,0
2023-01-06T01:27:00.838Z,0
2023-01-06T01:28:00.828Z,0
2023-01-06T01:29:00.815Z,0
2023-01-06T01:30:00.811Z,0
2023-01-06T01:31:00.792Z,0
2023-01-06T01:32:00.792Z,0
2023-01-06T01:33:00.776Z,0
2023-01-06T01:34:00.765Z,0
2023-01-06T01:35:00.754Z,0
2023-01-06T01:36:00.740Z,0
2023-01-06T01:37:00.731Z,0
2023-01-06T01:38:00.726Z,0
2023-01-06T01:39:00.728Z,0
2023-01-06T01:40:00.699Z,0
2023-01-06T01:41:00.690Z,0
2023-01-06T01:42:00.683Z,0
2023-01-06T01:43:00.681Z,0
2023-01-06T01:44:00.653Z,0
2023-01-06T01:45:00.643Z,0
2023-01-06T01:46:00.638Z,0
2023-01-06T01:47:00.622Z,0
2023-01-06T01:48:00.612Z,0
2023-01-06T01:49:00.603Z,0
2023-01-06T01:50:00.599Z,0
2023-01-06T01:51:00.583Z,0
2023-01-06T01:52:00.566Z,0
2023-01-06T01:53:00.563Z,0
2023-01-06T01:54:00.549Z,0
2023-01-06T01:55:00.538Z,0
2023-01-06T01:56:00.530Z,0
2023-01-06T01:57:00.517Z,0
2023-01-06T01:58:00.505Z,0
2023-01-06T01:59:00.495Z,0
2023-01-06T02:00:00.502Z,0
2023-01-06T02:01:00.469Z,0
2023-01-06T02:02:00.466Z,0
2023-01-06T02:03:00.454Z,0
2023-01-06T02:04:00.443Z,0
2023-01-06T02:05:00.431Z,0
2023-01-06T02:06:00.416Z,0
2023-01-06T02:07:00.417Z,0
2023-01-06T02:08:00.398Z,0
2023-01-06T02:09:00.392Z,0
2023-01-06T02:10:00.381Z,0
2023-01-06T02:11:00.371Z,0
2023-01-06T02:12:00.365Z,0
2023-01-06T02:13:00.345Z,0
2023-01-06T02:14:00.330Z,0
2023-01-06T02:15:00.322Z,0
2023-01-06T02:16:00.314Z,0
2023-01-06T02:17:00.307Z,0
2023-01-06T02:18:00.296Z,0
2023-01-06T02:19:00.293Z,0
2023-01-06T02:20:00.283Z,0
2023-01-06T02:21:00.337Z,0
2023-01-06T02:22:00.257Z,0
2023-01-06T02:23:00.290Z,0
2023-01-06T02:24:00.232Z,0
2023-01-06T02:25:00.227Z,0
2023-01-06T02:26:00.221Z,0
2023-01-06T02:27:00.196Z,0
2023-01-06T02:28:00.186Z,0
2023-01-06T02:29:00.172Z,0
2023-01-06T02:30:00.165Z,0
2023-01-06T02:31:00.159Z,0
2023-01-06T02:32:00.135Z,0
2023-01-06T02:33:00.130Z,0
2023-01-06T02:34:00.115Z,0
2023-01-06T02:35:00.107Z,0
2023-01-06T02:36:00.097Z,0
2023-01-06T02:37:00.084Z,0
2023-01-06T02:38:00.076Z,0
2023-01-06T02:39:00.065Z,0
2023-01-06T02:40:00.065Z,0
2023-01-06T02:41:00.047Z,0
2023-01-06T02:42:00.044Z,0
2023-01-06T02:43:00.022Z,0
2023-01-06T02:44:00.008Z,0
2023-01-06T02:45:00.001Z,0
2023-01-06T02:46:00.000Z,0
2023-01-06T02:46:59.980Z,0
2023-01-06T02:47:59.968Z,0
2023-01-06T02:48:59.961Z,0
2023-01-06T02:49:59.946Z,0
2023-01-06T02:50:59.935Z,0
2023-01-06T02:51:59.929Z,0
2023-01-06T02:52:59.915Z,0
2023-01-06T02:53:59.908Z,0
2023-01-06T02:54:59.900Z,0
2023-01-06T02:55:59.887Z,0
2023-01-06T02:56:59.872Z,0
2023-01-06T02:57:59.865Z,0
2023-01-06T02:58:59.856Z,0
2023-01-06T02:59:59.844Z,0
2023-01-06T03:00:59.840Z,0
2023-01-06T03:01:59.818Z,0
2023-01-06T03:02:59.808Z,0
2023-01-06T03:03:59.798Z,0
2023-01-06T03:04:59.800Z,0
2023-01-06T03:05:59.779Z,0
2023-01-06T03:06:59.811Z,0
2023-01-06T03:07:59.811Z,0
2023-01-06T03:08:59.747Z,0
2023-01-06T03:09:59.736Z,0
2023-01-06T03:10:59.722Z,0
2023-01-06T03:11:59.723Z,0
2023-01-06T03:12:59.701Z,0
2023-01-06T03:13:59.692Z,0
2023-01-06T03:14:59.755Z,0
2023-01-06T03:15:59.679Z,0
2023-01-06T03:16:59.667Z,0
2023-01-06T03:17:59.666Z,0
2023-01-06T03:18:59.638Z,0
2023-01-06T03:19:59.643Z,0
2023-01-06T03:20:59.622Z,0
2023-01-06T03:21:59.607Z,0
2023-01-06T03:22:59.605Z,0
2023-01-06T03:23:59.595Z,0
2023-01-06T03:24:59.588Z,0
2023-01-06T03:25:59.562Z,0
2023-01-06T03:26:59.557Z,0
2023-01-06T03:27:59.541Z,0
2023-01-06T03:28:59.530Z,0
2023-01-06T03:29:59.523Z,0
2023-01-06T03:30:59.516Z,0
2023-01-06T03:31:59.527Z,0
2023-01-06T03:32:59.489Z,0
2023-01-06T03:33:59.477Z,0
2023-01-06T03:34:59.471Z,0
2023-01-06T03:35:59.461Z,0
2023-01-06T03:36:59.445Z,0
2023-01-06T03:37:59.438Z,0
2023-01-06T03:38:59.421Z,0
2023-01-06T03:39:59.411Z,0
2023-01-06T03:40:59.404Z,0
2023-01-06T03:41:59.397Z,0
2023-01-06T03:42:59.381Z,0
2023-01-06T03:43:59.375Z,0
2023-01-06T03:44:59.373Z,0
2023-01-06T03:45:59.349Z,0
2023-01-06T03:46:59.343Z,0
2023-01-06T03:47:59.330Z,0
2023-01-06T03:48:59.313Z,0
2023-01-06T03:49:59.306Z,0
2023-01-06T03:50:59.306Z,0
2023-01-06T03:51:59.284Z,0
2023-01-06T03:52:59.276Z,0
2023-01-06T03:53:59.266Z,0
2023-01-06T03:54:59.251Z,0
2023-01-06T03:55:59.243Z,0
2023-01-06T03:56:59.238Z,0
2023-01-06T03:57:59.228Z,0
2023-01-06T03:58:59.208Z,0
2023-01-06T03:59:59.276Z,0
2023-01-06T04:00:59.194Z,0
2023-01-06T04:01:59.186Z,0
2023-01-06T04:02:59.163Z,0
2023-01-06T04:03:59.181Z,0
2023-01-06T04:04:59.144Z,0
2023-01-06T04:05:59.138Z,0
2023-01-06T04:06:59.126Z,0
2023-01-06T04:07:59.110Z,0
2023-01-06T04:08:59.109Z,0
2023-01-06T04:09:59.088Z,0
2023-01-06T04:10:59.081Z,0
2023-01-06T04:11:59.065Z,0
2023-01-06T04:12:59.059Z,0
2023-01-06T04:13:59.048Z,0
2023-01-06T04:14:59.067Z,0
2023-01-06T04:15:59.034Z,0
2023-01-06T04:16:59.016Z,0
2023-01-06T04:17:59.009Z,0
2023-01-06T04:18:58.997Z,0
2023-01-06T04:19:58.991Z,0
2023-01-06T04:20:58.986Z,0
2023-01-06T04:21:58.966Z,0
2023-01-06T04:22:58.959Z,0
2023-01-06T04:23:58.950Z,0
2023-01-06T04:24:58.926Z,0
2023-01-06T04:25:58.932Z,0
2023-01-06T04:26:58.918Z,0
2023-01-06T04:27:58.912Z,0
2023-01-06T04:28:58.889Z,0
2023-01-06T04:29:58.874Z,0
2023-01-06T04:30:58.873Z,0
2023-01-06T04:31:58.868Z,0
2023-01-06T04:32:58.844Z,0
2023-01-06T04:33:58.835Z,0
2023-01-06T04:34:58.822Z,0
2023-01-06T04:35:58.810Z,0
2023-01-06T04:36:58.803Z,0
2023-01-06T04:37:58.805Z,0
2023-01-06T04:38:58.791Z,0
2023-01-06T04:39:58.771Z,0
2023-01-06T04:40:58.785Z,0
2023-01-06T04:41:58.763Z,0
2023-01-06T04:42:58.740Z,0
2023-01-06T04:43:58.730Z,0
2023-01-06T04:44:58.724Z,0
2023-01-06T04:45:58.704Z,0
2023-01-06T04:46:58.742Z,0
2023-01-06T04:47:58.685Z,0
2023-01-06T04:48:58.671Z,0
2023-01-06T04:49:58.677Z,0
2023-01-06T04:50:58.670Z,0
2023-01-06T04:51:58.667Z,0
2023-01-06T04:52:58.636Z,0
2023-01-06T04:53:58.624Z,0
2023-01-06T04:54:58.605Z,0
2023-01-06T04:55:58.599Z,0
2023-01-06T04:56:58.618Z,0
2023-01-06T04:57:58.582Z,0
2023-01-06T04:59:06.697Z,0
2023-01-06T04:59:58.682Z,0
2023-01-06T05:00:59.544Z,0
2023-01-06T05:01:58.565Z,0
2023-01-06T05:02:58.529Z,0
2023-01-06T05:03:58.512Z,0
2023-01-06T05:04:58.502Z,0
2023-01-06T05:05:58.587Z,0
2023-01-06T05:06:58.494Z,0
2023-01-06T05:07:58.478Z,0
2023-01-06T05:08:58.476Z,0
2023-01-06T05:09:58.469Z,0
2023-01-06T05:10:58.457Z,0
2023-01-06T05:11:58.478Z,0
2023-01-06T05:12:58.412Z,0
2023-01-06T05:13:58.404Z,0
2023-01-06T05:14:58.408Z,0
2023-01-06T05:15:58.399Z,0
2023-01-06T05:16:58.416Z,0
2023-01-06T05:17:58.374Z,0
2023-01-06T05:18:58.350Z,0
2023-01-06T05:19:58.351Z,0
2023-01-06T05:20:58.379Z,0
2023-01-06T05:21:58.339Z,0
2023-01-06T05:22:58.319Z,0
2023-01-06T05:23:58.302Z,0
2023-01-06T05:24:58.374Z,0
2023-01-06T05:25:58.290Z,0
2023-01-06T05:26:58.285Z,0
2023-01-06T05:27:58.267Z,0
2023-01-06T05:28:58.394Z,0
2023-01-06T05:29:58.242Z,0
2023-01-06T05:30:58.251Z,0
2023-01-06T05:31:58.231Z,0
2023-01-06T05:32:58.231Z,0
2023-01-06T05:33:58.236Z,0
2023-01-06T05:34:58.245Z,0
2023-01-06T05:35:58.182Z,0
2023-01-06T05:36:58.180Z,0
2023-01-06T05:37:58.152Z,0
2023-01-06T05:38:58.156Z,0
2023-01-06T05:39:58.134Z,0
2023-01-06T05:40:58.127Z,0
2023-01-06T05:41:58.107Z,0
2023-01-06T05:42:58.102Z,0
2023-01-06T05:43:58.125Z,0
2023-01-06T05:44:58.137Z,0
2023-01-06T05:45:58.067Z,0
2023-01-06T05:46:58.070Z,0
2023-01-06T05:47:58.065Z,0
2023-01-06T05:48:58.034Z,0
2023-01-06T05:49:58.025Z,0
2023-01-06T05:50:58.014Z,0
2023-01-06T05:51:58.010Z,0
2023-01-06T05:52:57.992Z,0
2023-01-06T05:53:57.985Z,0
2023-01-06T05:54:57.969Z,0
2023-01-06T05:55:57.967Z,0
2023-01-06T05:56:57.947Z,0
2023-01-06T05:57:57.995Z,0
2023-01-06T05:58:57.921Z,0
2023-01-06T05:59:57.909Z,0
2023-01-06T06:00:57.909Z,0
2023-01-06T06:01:57.905Z,0
2023-01-06T06:02:57.887Z,0
2023-01-06T06:03:57.868Z,0
2023-01-06T06:04:57.868Z,0
2023-01-06T06:05:57.872Z,0
2023-01-06T06:06:57.844Z,0
2023-01-06T06:07:57.828Z,0
2023-01-06T06:08:57.826Z,0
2023-01-06T06:09:57.803Z,0
2023-01-06T06:10:57.804Z,0
2023-01-06T06:11:57.791Z,0
2023-01-06T06:12:57.782Z,0
2023-01-06T06:13:57.761Z,0
2023-01-06T06:14:57.764Z,0
2023-01-06T06:15:57.738Z,0
2023-01-06T06:16:57.734Z,0
2023-01-06T06:17:57.738Z,0
2023-01-06T06:18:57.711Z,0
2023-01-06T06:19:57.706Z,0
2023-01-06T06:20:57.693Z,0
2023-01-06T06:21:57.687Z,0
2023-01-06T06:22:57.662Z,0
2023-01-06T06:23:57.660Z,0
2023-01-06T06:24:57.654Z,0
2023-01-06T06:25:57.667Z,0
2023-01-06T06:26:57.627Z,0
2023-01-06T06:27:57.611Z,0
2023-01-06T06:28:57.658Z,0
2023-01-06T06:29:57.606Z,0
2023-01-06T06:30:57.576Z,0
2023-01-06T06:31:57.570Z,0
2023-01-06T06:32:57.562Z,0
2023-01-06T06:33:57.544Z,0
2023-01-06T06:34:57.537Z,0
2023-01-06T06:35:57.558Z,0
2023-01-06T06:36:57.512Z,0
2023-01-06T06:37:57.510Z,0
2023-01-06T06:38:57.494Z,0
2023-01-06T06:39:57.484Z,0
2023-01-06T06:40:57.476Z,0
2023-01-06T06:41:57.476Z,0
2023-01-06T06:42:57.446Z,0
2023-01-06T06:43:57.452Z,0
2023-01-06T06:44:57.436Z,0
2023-01-06T06:45:57.424Z,0
2023-01-06T06:46:57.414Z,0
2023-01-06T06:47:57.396Z,0
2023-01-06T06:48:57.385Z,0
2023-01-06T06:49:57.387Z,0
2023-01-06T06:50:57.366Z,0
2023-01-06T06:51:57.363Z,0
2023-01-06T06:52:57.345Z,0
2023-01-06T06:53:57.355Z,0
2023-01-06T06:54:57.320Z,0
2023-01-06T06:55:57.312Z,0
2023-01-06T06:56:57.297Z,0
2023-01-06T06:57:57.302Z,0
2023-01-06T06:58:57.296Z,0
2023-01-06T06:59:57.291Z,0
2023-01-06T07:00:57.272Z,0
2023-01-06T07:01:57.271Z,0
2023-01-06T07:02:57.234Z,0
2023-01-06T07:03:57.251Z,0
2023-01-06T07:04:57.230Z,0
2023-01-06T07:05:57.207Z,0
2023-01-06T07:06:57.233Z,0
2023-01-06T07:07:57.188Z,0
2023-01-06T07:08:57.170Z,0
2023-01-06T07:09:57.178Z,0
2023-01-06T07:10:57.147Z,0
2023-01-06T07:11:57.142Z,0
2023-01-06T07:12:57.149Z,0
2023-01-06T07:13:57.130Z,0
2023-01-06T07:14:57.109Z,0
2023-01-06T07:15:57.105Z,0
2023-01-06T07:16:57.088Z,0
2023-01-06T07:17:57.092Z,0
2023-01-06T07:18:57.065Z,0
2023-01-06T07:19:57.062Z,0
2023-01-06T07:20:57.045Z,0
2023-01-06T07:21:57.050Z,0
2023-01-06T07:22:57.079Z,0
2023-01-06T07:23:57.011Z,0
2023-01-06T07:24:57.004Z,0
2023-01-06T07:25:56.985Z,0
2023-01-06T07:26:56.984Z,0
2023-01-06T07:27:56.980Z,0
2023-01-06T07:28:56.954Z,0
2023-01-06T07:29:56.947Z,0
2023-01-06T07:30:56.981Z,0
2023-01-06T07:31:56.926Z,0
2023-01-06T07:32:56.926Z,0
2023-01-06T07:33:56.903Z,0
2023-01-06T07:34:56.893Z,0
2023-01-06T07:35:56.889Z,0
2023-01-06T07:36:56.889Z,0
2023-01-06T07:37:56.862Z,0
2023-01-06T07:38:56.857Z,0
2023-01-06T07:39:56.842Z,0
2023-01-06T07:40:56.835Z,0
2023-01-06T07:41:56.821Z,0
2023-01-06T07:42:56.819Z,0
2023-01-06T07:43:56.915Z,0
2023-01-06T07:44:56.798Z,0
2023-01-06T07:45:56.782Z,0
2023-01-06T07:46:56.788Z,0
2023-01-06T07:47:56.760Z,0
2023-01-06T07:48:56.756Z,0
2023-01-06T07:49:56.767Z,0
2023-01-06T07:50:56.740Z,0
2023-01-06T07:51:56.712Z,0
2023-01-06T07:52:56.699Z,0
2023-01-06T07:53:56.703Z,5.62
2023-01-06T07:54:56.695Z,0
2023-01-06T07:55:56.688Z,0
2023-01-06T07:56:56.696Z,0
2023-01-06T07:57:56.647Z,5.62
2023-01-06T07:58:56.637Z,5.62
2023-01-06T07:59:56.628Z,5.62
2023-01-06T08:00:56.615Z,5.62
2023-01-06T08:02:05.596Z,5.62
2023-01-06T08:02:56.608Z,5.62
2023-01-06T08:03:56.650Z,11.25
2023-01-06T08:04:56.631Z,11.25
2023-01-06T08:05:56.640Z,5.62
2023-01-06T08:06:56.556Z,11.25
2023-01-06T08:07:56.547Z,11.25
2023-01-06T08:08:56.531Z,11.25
2023-01-06T08:09:56.529Z,5.62
2023-01-06T08:11:04.166Z,5.62
2023-01-06T08:12:04.075Z,11.25
2023-01-06T08:12:56.497Z,11.25
2023-01-06T08:13:56.490Z,11.25
2023-01-06T08:15:03.075Z,11.25
2023-01-06T08:15:56.462Z,11.25
2023-01-06T08:16:56.451Z,11.25
2023-01-06T08:17:56.430Z,11.25
2023-01-06T08:18:56.431Z,11.25
2023-01-06T08:19:56.412Z,11.25
2023-01-06T08:20:56.401Z,11.25
2023-01-06T08:21:56.389Z,11.25
2023-01-06T08:22:56.386Z,11.25
2023-01-06T08:23:56.367Z,16.88
2023-01-06T08:24:56.358Z,16.88
2023-01-06T08:25:56.384Z,11.25
2023-01-06T08:26:56.353Z,11.25
2023-01-06T08:27:56.335Z,11.25
2023-01-06T08:28:56.408Z,11.25
2023-01-06T08:29:56.484Z,11.25
2023-01-06T08:30:56.305Z,16.88
2023-01-06T08:31:56.285Z,16.88
2023-01-06T08:32:56.298Z,11.25
2023-01-06T08:33:56.262Z,16.88
2023-01-06T08:34:56.255Z,16.88
2023-01-06T08:35:56.259Z,16.88
2023-01-06T08:36:56.253Z,16.88
2023-01-06T08:37:56.248Z,16.88
2023-01-06T08:38:56.210Z,16.88
2023-01-06T08:39:56.194Z,22.5
2023-01-06T08:40:56.199Z,22.5
2023-01-06T08:41:56.196Z,22.5
2023-01-06T08:42:56.166Z,22.5
2023-01-06T08:43:56.193Z,16.88
2023-01-06T08:44:56.165Z,11.25
2023-01-06T08:45:56.180Z,11.25
2023-01-06T08:46:56.125Z,11.25
2023-01-06T08:47:56.134Z,11.25
2023-01-06T08:48:56.105Z,11.25
2023-01-06T08:49:56.095Z,5.62
2023-01-06T08:50:56.090Z,5.62
2023-01-06T08:51:56.078Z,5.62
2023-01-06T08:52:56.063Z,5.62
2023-01-06T08:53:56.060Z,5.62
2023-01-06T08:54:56.069Z,5.62
2023-01-06T08:55:56.025Z,5.62
2023-01-06T08:56:56.042Z,5.62
2023-01-06T08:57:56.006Z,11.25
2023-01-06T08:58:56.025Z,11.25
2023-01-06T08:59:55.997Z,5.62
2023-01-06T09:00:55.972Z,5.62
2023-01-06T09:01:56.015Z,5.62
2023-01-06T09:02:55.949Z,5.62
2023-01-06T09:03:55.943Z,5.62
2023-01-06T09:04:55.978Z,5.62
2023-01-06T09:05:55.937Z,5.62
2023-01-06T09:06:55.915Z,5.62
2023-01-06T09:07:55.905Z,5.62
2023-01-06T09:08:55.887Z,5.62
2023-01-06T09:09:55.883Z,5.62
2023-01-06T09:10:55.893Z,5.62
2023-01-06T09:11:55.877Z,5.62
2023-01-06T09:12:55.855Z,5.62
2023-01-06T09:13:55.832Z,5.62
2023-01-06T09:14:55.821Z,5.62
2023-01-06T09:15:55.819Z,11.25
2023-01-06T09:16:55.824Z,11.25
2023-01-06T09:17:55.824Z,11.25
2023-01-06T09:18:55.797Z,5.62
2023-01-06T09:19:55.787Z,5.62
2023-01-06T09:20:56.471Z,5.62
2023-01-06T09:21:55.760Z,11.25
2023-01-06T09:22:55.803Z,11.25
2023-01-06T09:23:55.795Z,16.88
2023-01-06T09:24:55.716Z,16.88
2023-01-06T09:25:55.712Z,22.5
2023-01-06T09:26:55.692Z,22.5
2023-01-06T09:27:55.681Z,16.88
2023-01-06T09:28:55.672Z,11.25
2023-01-06T09:29:55.664Z,11.25
2023-01-06T09:30:55.669Z,11.25
2023-01-06T09:31:55.642Z,11.25
2023-01-06T09:32:55.653Z,11.25
2023-01-06T09:33:55.635Z,11.25
2023-01-06T09:34:55.607Z,11.25
2023-01-06T09:35:55.603Z,16.88
2023-01-06T09:36:55.703Z,16.88
2023-01-06T09:37:55.603Z,16.88
2023-01-06T09:38:55.576Z,16.88
2023-01-06T09:39:55.586Z,16.88
2023-01-06T09:40:55.549Z,11.25
2023-01-06T09:41:55.531Z,11.25
2023-01-06T09:42:55.528Z,11.25
2023-01-06T09:43:55.588Z,11.25
2023-01-06T09:44:55.539Z,16.88
2023-01-06T09:45:55.518Z,22.5
2023-01-06T09:46:55.485Z,28.12
2023-01-06T09:47:55.495Z,28.12
2023-01-06T09:48:55.598Z,22.5
2023-01-06T09:49:56.770Z,22.5
2023-01-06T09:50:56.010Z,16.88
2023-01-06T09:51:56.097Z,16.88
2023-01-06T09:52:55.985Z,16.88
2023-01-06T09:53:55.517Z,11.25
2023-01-06T09:54:55.417Z,11.25
2023-01-06T09:55:55.409Z,11.25
2023-01-06T09:56:55.391Z,11.25
2023-01-06T09:57:55.389Z,16.88
2023-01-06T09:58:55.360Z,28.12
2023-01-06T09:59:55.342Z,28.12
2023-01-06T10:00:55.336Z,22.5
2023-01-06T10:01:55.328Z,22.5
2023-01-06T10:02:55.317Z,22.5
2023-01-06T10:03:55.302Z,22.5
2023-01-06T10:04:55.328Z,22.5
2023-01-06T10:05:55.286Z,16.88
2023-01-06T10:06:55.414Z,16.88
2023-01-06T10:07:55.264Z,16.88
2023-01-06T10:08:55.247Z,16.88
2023-01-06T10:09:55.267Z,22.5
2023-01-06T10:10:55.222Z,28.12
2023-01-06T10:11:55.262Z,28.12
2023-01-06T10:12:55.205Z,28.12
2023-01-06T10:13:55.192Z,22.5
2023-01-06T10:14:55.198Z,22.5
2023-01-06T10:15:55.170Z,22.5
2023-01-06T10:16:55.196Z,28.12
2023-01-06T10:17:55.154Z,22.5
2023-01-06T10:18:55.158Z,16.88
2023-01-06T10:19:55.240Z,16.88
2023-01-06T10:20:55.225Z,16.88
2023-01-06T10:21:56.187Z,28.12
2023-01-06T10:22:55.521Z,28.12
2023-01-06T10:23:55.106Z,28.12
2023-01-06T10:24:55.078Z,22.5
2023-01-06T10:25:55.090Z,16.88
2023-01-06T10:26:55.050Z,11.25
2023-01-06T10:27:55.041Z,16.88
2023-01-06T10:28:55.049Z,16.88
2023-01-06T10:29:55.019Z,16.88
2023-01-06T10:30:55.011Z,16.88
2023-01-06T10:31:54.999Z,16.88
2023-01-06T10:32:54.994Z,22.5
2023-01-06T10:33:54.982Z,22.5
2023-01-06T10:34:54.968Z,22.5
2023-01-06T10:35:54.988Z,16.88
2023-01-06T10:36:54.963Z,11.25
2023-01-06T10:37:54.930Z,11.25
2023-01-06T10:38:54.931Z,16.88
2023-01-06T10:39:54.910Z,16.88
2023-01-06T10:40:54.905Z,16.88
2023-01-06T10:41:55.068Z,22.5
2023-01-06T10:42:54.892Z,22.5
2023-01-06T10:43:54.870Z,16.88
2023-01-06T10:44:55.658Z,22.5
2023-01-06T10:45:54.856Z,22.5
2023-01-06T10:46:54.837Z,22.5
2023-01-06T10:48:03.998Z,16.88
2023-01-06T10:49:17.687Z,11.25
2023-01-06T10:49:54.842Z,11.25
2023-01-06T10:50:54.808Z,11.25
2023-01-06T10:51:54.804Z,16.88
2023-01-06T10:52:54.767Z,22.5
2023-01-06T10:53:54.866Z,22.5
2023-01-06T10:54:54.751Z,22.5
2023-01-06T10:55:54.743Z,16.88
2023-01-06T10:56:54.729Z,16.88
2023-01-06T10:57:54.741Z,22.5
2023-01-06T10:58:54.708Z,28.12
2023-01-06T10:59:54.700Z,28.12
2023-01-06T11:00:54.684Z,28.12
2023-01-06T11:01:54.686Z,22.5
2023-01-06T11:02:54.689Z,22.5
2023-01-06T11:03:54.751Z,22.5
2023-01-06T11:04:54.648Z,22.5
2023-01-06T11:05:54.708Z,16.88
2023-01-06T11:06:54.672Z,16.88
2023-01-06T11:07:54.671Z,16.88
2023-01-06T11:08:54.607Z,16.88
2023-01-06T11:09:54.594Z,16.88
2023-01-06T11:10:54.593Z,16.88
2023-01-06T11:11:54.625Z,16.88
2023-01-06T11:12:54.682Z,11.25
2023-01-06T11:13:54.562Z,11.25
2023-01-06T11:14:54.532Z,16.88
2023-01-06T11:15:54.539Z,22.5
2023-01-06T11:16:54.562Z,22.5
2023-01-06T11:17:54.526Z,22.5
2023-01-06T11:18:54.497Z,28.12
2023-01-06T11:19:54.607Z,22.5
2023-01-06T11:20:54.601Z,16.88
2023-01-06T11:21:54.461Z,16.88
2023-01-06T11:22:54.451Z,16.88
2023-01-06T11:23:54.438Z,16.88
2023-01-06T11:24:54.444Z,22.5
2023-01-06T11:25:54.426Z,28.12
2023-01-06T11:26:54.408Z,28.12
2023-01-06T11:27:54.408Z,28.12
2023-01-06T11:28:54.380Z,28.12
2023-01-06T11:29:54.369Z,28.12
2023-01-06T11:30:54.367Z,45
2023-01-06T11:31:54.446Z,56.25
2023-01-06T11:32:54.350Z,73.12
2023-01-06T11:33:54.356Z,73.12
2023-01-06T11:34:54.317Z,78.75
2023-01-06T11:35:54.350Z,78.75
2023-01-06T11:36:54.295Z,84.38
2023-01-06T11:37:54.309Z,73.12
2023-01-06T11:38:54.313Z,78.75
2023-01-06T11:39:54.290Z,73.12
2023-01-06T11:40:54.278Z,78.75
2023-01-06T11:41:54.256Z,73.12
2023-01-06T11:42:54.229Z,78.75
2023-01-06T11:43:54.219Z,90
2023-01-06T11:44:54.228Z,95.62
2023-01-06T11:45:54.211Z,112.5
2023-01-06T11:46:54.188Z,140.62
2023-01-06T11:47:54.174Z,151.88
2023-01-06T11:48:54.215Z,146.25
2023-01-06T11:49:54.206Z,146.25
2023-01-06T11:50:54.164Z,140.62
2023-01-06T11:51:54.209Z,180
2023-01-06T11:52:54.151Z,196.88
2023-01-06T11:53:54.119Z,1305
2023-01-06T11:54:54.109Z,433.12
2023-01-06T11:55:54.109Z,1164.38
2023-01-06T11:56:54.095Z,472.5
2023-01-06T11:57:54.067Z,759.38
2023-01-06T11:58:54.075Z,106.88
2023-01-06T11:59:54.101Z,168.75
2023-01-06T12:00:54.089Z,180
2023-01-06T12:01:54.032Z,112.5
2023-01-06T12:02:54.034Z,67.5
2023-01-06T12:03:54.014Z,73.12
2023-01-06T12:04:54.065Z,50.62
2023-01-06T12:05:53.995Z,45
2023-01-06T12:06:53.975Z,56.25
2023-01-06T12:07:54.014Z,39.38
2023-01-06T12:08:53.986Z,39.38
2023-01-06T12:09:54.004Z,33.75
2023-01-06T12:10:53.934Z,73.12
2023-01-06T12:11:53.940Z,39.38
2023-01-06T12:12:53.915Z,28.12
2023-01-06T12:13:54.006Z,28.12
2023-01-06T12:14:53.929Z,33.75
2023-01-06T12:15:53.885Z,45
2023-01-06T12:16:54.200Z,39.38
2023-01-06T12:17:53.860Z,50.62
2023-01-06T12:18:53.855Z,61.88
2023-01-06T12:19:53.852Z,56.25
2023-01-06T12:20:53.896Z,61.88
2023-01-06T12:21:53.819Z,45
2023-01-06T12:22:53.883Z,45
2023-01-06T12:23:53.794Z,61.88
2023-01-06T12:24:53.796Z,61.88
2023-01-06T12:25:53.795Z,84.38
2023-01-06T12:26:53.804Z,56.25
2023-01-06T12:27:53.770Z,50.62
2023-01-06T12:29:02.332Z,50.62
2023-01-06T12:30:01.390Z,56.25
2023-01-06T12:34:30.775Z,270
2023-01-06T12:36:49.063Z,140.62
2023-01-06T12:37:57.588Z,163.12
2023-01-06T12:38:48.970Z,180
2023-01-06T12:39:48.983Z,185.62
2023-01-06T12:40:48.941Z,151.88
2023-01-06T12:41:49.066Z,151.88
2023-01-06T12:42:49.050Z,123.75
2023-01-06T12:43:48.940Z,135
2023-01-06T12:44:48.946Z,135
2023-01-06T12:45:48.899Z,118.12
2023-01-06T12:46:48.884Z,78.75
2023-01-06T12:47:48.884Z,78.75
2023-01-06T12:48:48.965Z,73.12
2023-01-06T12:49:48.898Z,73.12
2023-01-06T12:50:48.858Z,56.25
2023-01-06T12:51:49.274Z,61.88
2023-01-06T12:52:48.832Z,73.12
2023-01-06T12:53:48.923Z,45
2023-01-06T12:54:48.819Z,33.75
2023-01-06T15:18:07.669Z,5.62
2023-01-06T15:19:08.580Z,5.62
2023-01-06T15:26:41.773Z,0
2023-01-06T15:31:51.395Z,0
2023-01-06T15:32:51.427Z,0
2023-01-06T15:33:51.425Z,0
2023-01-06T15:34:52.522Z,0
2023-01-06T15:35:51.306Z,0
2023-01-06T15:36:52.302Z,0
2023-01-06T15:37:51.382Z,0
2023-01-06T15:38:51.292Z,0
2023-01-06T15:39:52.248Z,0
2023-01-06T15:40:52.252Z,0
2023-01-06T15:41:51.247Z,0
2023-01-06T15:42:51.251Z,0
2023-01-06T15:43:51.257Z,0
2023-01-06T15:44:51.192Z,0
2023-01-06T15:45:51.218Z,0
2023-01-06T15:46:52.171Z,0
2023-01-06T15:47:51.197Z,0
2023-01-06T15:48:51.188Z,0
2023-01-06T15:49:51.208Z,0
2023-01-06T15:50:51.258Z,0
2023-01-06T15:51:51.153Z,0
2023-01-06T15:52:51.177Z,0
2023-01-06T15:53:51.086Z,0
2023-01-06T15:54:51.090Z,0
2023-01-06T15:55:51.237Z,0
2023-01-06T15:56:51.088Z,0
2023-01-06T15:57:51.305Z,0
2023-01-06T15:58:51.104Z,0
2023-01-06T15:59:51.117Z,0
2023-01-06T16:00:51.028Z,0
2023-01-06T16:01:51.070Z,0
2023-01-06T16:02:51.000Z,0
2023-01-06T16:03:51.029Z,0
2023-01-06T16:04:50.968Z,0
2023-01-06T16:05:52.144Z,0
2023-01-06T16:06:50.963Z,0
2023-01-06T16:07:51.025Z,0
2023-01-06T16:08:52.013Z,0
2023-01-06T16:09:50.935Z,0
2023-01-06T16:10:50.945Z,0
2023-01-06T16:11:50.914Z,0
2023-01-06T16:12:50.994Z,0
2023-01-06T16:13:50.881Z,0
2023-01-06T16:14:51.002Z,0
2023-01-06T16:15:51.235Z,0
2023-01-06T16:16:51.183Z,0
2023-01-06T16:17:51.115Z,0
2023-01-06T16:18:51.141Z,0
2023-01-06T16:19:50.929Z,0
2023-01-06T16:20:50.946Z,0
2023-01-06T16:21:51.849Z,0
2023-01-06T16:22:51.948Z,0
2023-01-06T16:23:51.228Z,0
2023-01-06T16:24:51.104Z,0
2023-01-06T16:25:50.874Z,0
2023-01-06T16:26:50.910Z,0
2023-01-06T16:27:50.862Z,0
2023-01-06T16:28:50.827Z,0
2023-01-06T16:29:50.861Z,0
2023-01-06T16:30:50.828Z,0
2023-01-06T16:31:50.758Z,0
2023-01-06T16:32:50.970Z,0
2023-01-06T16:33:50.658Z,0
2023-01-06T16:34:50.716Z,0
2023-01-06T16:35:51.716Z,0
2023-01-06T16:36:51.645Z,0
2023-01-06T16:37:50.622Z,0
2023-01-06T16:38:51.587Z,0
2023-01-06T16:39:50.633Z,0
2023-01-06T16:40:51.769Z,0
2023-01-06T16:41:50.598Z,0
2023-01-06T16:42:50.651Z,0
2023-01-06T16:43:50.559Z,0
2023-01-06T16:44:50.547Z,0